High Point, New Jersey
Current Conditions -  °F | °C
As of 7:12 PM on Wednesday 26 Nov 2014 (Local Time) from KFWN Reporting Station
Light Snow Light Snow  
Wind Chill: 29°   Ceiling: 1700
Heat Index: 34°   Visibility: 3mi
Dew Point: 31°   Wind: 6mph
Humidity: 89%   Direction: NA
Pressure: 29.86"   Gusts: NA
Location:  41.2395°N, 74.6087°W
Report Text: KFWN 270012Z AUTO VRB05KT 3SM -SN BR FEW011 OVC017 01/M01 A2986 RMK AO2 P0002 T00111006
Loading
Personal Weather Stations






























Interactive Weather Map New forecast layout! Learn more

10-Day Weather Forecast

Advertisements
Track Severe Weather on mobile